sensor_id;sensor_type;location;lat;lon;timestamp;P1;durP1;ratioP1;P2;durP2;ratioP2
22357;SDS011;11346;50.150;8.150;2023-05-13T00:01:13;8.90;;;5.00;;
22357;SDS011;11346;50.150;8.150;2023-05-13T00:03:40;6.57;;;4.97;;
22357;SDS011;11346;50.150;8.150;2023-05-13T00:06:07;5.13;;;3.80;;
22357;SDS011;11346;50.150;8.150;2023-05-13T00:08:34;8.20;;;3.80;;
22357;SDS011;11346;50.150;8.150;2023-05-13T00:11:01;11.17;;;3.90;;
22357;SDS011;11346;50.150;8.150;2023-05-13T00:13:28;6.93;;;3.70;;
22357;SDS011;11346;50.150;8.150;2023-05-13T00:15:55;7.20;;;4.10;;
22357;SDS011;11346;50.150;8.150;2023-05-13T00:18:23;6.20;;;4.63;;
22357;SDS011;11346;50.150;8.150;2023-05-13T00:20:51;5.47;;;4.40;;
22357;SDS011;11346;50.150;8.150;2023-05-13T00:23:18;9.10;;;4.20;;
22357;SDS011;11346;50.150;8.150;2023-05-13T00:25:44;5.40;;;4.63;;
22357;SDS011;11346;50.150;8.150;2023-05-13T00:28:11;9.57;;;4.83;;
22357;SDS011;11346;50.150;8.150;2023-05-13T00:30:39;7.70;;;4.23;;
22357;SDS011;11346;50.150;8.150;2023-05-13T00:33:07;7.70;;;5.00;;
22357;SDS011;11346;50.150;8.150;2023-05-13T00:35:36;8.00;;;4.30;;
22357;SDS011;11346;50.150;8.150;2023-05-13T00:38:03;8.10;;;3.90;;
22357;SDS011;11346;50.150;8.150;2023-05-13T00:40:30;5.63;;;4.23;;
22357;SDS011;11346;50.150;8.150;2023-05-13T00:42:59;8.47;;;4.70;;
22357;SDS011;11346;50.150;8.150;2023-05-13T00:45:26;7.83;;;4.20;;
22357;SDS011;11346;50.150;8.150;2023-05-13T00:47:53;9.53;;;4.00;;
22357;SDS011;11346;50.150;8.150;2023-05-13T00:50:20;6.10;;;3.90;;
22357;SDS011;11346;50.150;8.150;2023-05-13T00:52:49;8.23;;;4.33;;
22357;SDS011;11346;50.150;8.150;2023-05-13T00:55:16;10.10;;;4.40;;
22357;SDS011;11346;50.150;8.150;2023-05-13T00:57:43;5.30;;;4.30;;
22357;SDS011;11346;50.150;8.150;2023-05-13T01:00:10;8.67;;;4.37;;
22357;SDS011;11346;50.150;8.150;2023-05-13T01:02:38;7.23;;;4.80;;
22357;SDS011;11346;50.150;8.150;2023-05-13T01:05:08;5.67;;;4.40;;
22357;SDS011;11346;50.150;8.150;2023-05-13T01:07:40;7.13;;;5.00;;
22357;SDS011;11346;50.150;8.150;2023-05-13T01:10:13;10.03;;;4.50;;
22357;SDS011;11346;50.150;8.150;2023-05-13T01:12:41;7.10;;;5.10;;
22357;SDS011;11346;50.150;8.150;2023-05-13T01:15:09;8.67;;;5.23;;
22357;SDS011;11346;50.150;8.150;2023-05-13T01:17:39;12.40;;;5.00;;
22357;SDS011;11346;50.150;8.150;2023-05-13T01:20:08;10.77;;;4.93;;
22357;SDS011;11346;50.150;8.150;2023-05-13T01:22:37;7.13;;;5.07;;
22357;SDS011;11346;50.150;8.150;2023-05-13T01:25:04;12.47;;;5.23;;
22357;SDS011;11346;50.150;8.150;2023-05-13T01:27:31;7.57;;;4.97;;
22357;SDS011;11346;50.150;8.150;2023-05-13T01:29:58;6.10;;;4.50;;
22357;SDS011;11346;50.150;8.150;2023-05-13T01:32:25;6.57;;;4.50;;
22357;SDS011;11346;50.150;8.150;2023-05-13T01:34:52;7.03;;;5.00;;
22357;SDS011;11346;50.150;8.150;2023-05-13T01:37:20;5.60;;;4.30;;
22357;SDS011;11346;50.150;8.150;2023-05-13T01:39:48;6.73;;;5.17;;
22357;SDS011;11346;50.150;8.150;2023-05-13T01:42:16;5.80;;;4.30;;
22357;SDS011;11346;50.150;8.150;2023-05-13T01:44:43;5.70;;;4.60;;
22357;SDS011;11346;50.150;8.150;2023-05-13T01:47:09;8.97;;;4.63;;
22357;SDS011;11346;50.150;8.150;2023-05-13T01:49:36;8.43;;;4.40;;
22357;SDS011;11346;50.150;8.150;2023-05-13T01:52:04;9.47;;;4.97;;
22357;SDS011;11346;50.150;8.150;2023-05-13T01:54:31;8.87;;;5.37;;
22357;SDS011;11346;50.150;8.150;2023-05-13T01:56:59;7.17;;;5.00;;
22357;SDS011;11346;50.150;8.150;2023-05-13T01:59:26;5.97;;;4.60;;
22357;SDS011;11346;50.150;8.150;2023-05-13T02:01:53;6.07;;;4.80;;
22357;SDS011;11346;50.150;8.150;2023-05-13T02:04:20;5.60;;;4.50;;
22357;SDS011;11346;50.150;8.150;2023-05-13T02:06:47;11.77;;;4.40;;
22357;SDS011;11346;50.150;8.150;2023-05-13T02:09:14;9.70;;;4.60;;
22357;SDS011;11346;50.150;8.150;2023-05-13T02:11:41;8.00;;;4.40;;
22357;SDS011;11346;50.150;8.150;2023-05-13T02:14:09;5.53;;;4.20;;
22357;SDS011;11346;50.150;8.150;2023-05-13T02:16:36;9.00;;;5.07;;
22357;SDS011;11346;50.150;8.150;2023-05-13T02:19:03;13.70;;;5.27;;
22357;SDS011;11346;50.150;8.150;2023-05-13T02:21:30;8.20;;;5.03;;
22357;SDS011;11346;50.150;8.150;2023-05-13T02:23:58;10.63;;;4.90;;
22357;SDS011;11346;50.150;8.150;2023-05-13T02:26:25;9.63;;;4.50;;
22357;SDS011;11346;50.150;8.150;2023-05-13T02:28:52;9.30;;;4.63;;
22357;SDS011;11346;50.150;8.150;2023-05-13T02:31:20;9.43;;;4.63;;
22357;SDS011;11346;50.150;8.150;2023-05-13T02:33:47;6.70;;;4.00;;
22357;SDS011;11346;50.150;8.150;2023-05-13T02:36:14;4.60;;;4.10;;
22357;SDS011;11346;50.150;8.150;2023-05-13T02:38:42;4.67;;;4.20;;
22357;SDS011;11346;50.150;8.150;2023-05-13T02:41:09;5.77;;;4.40;;
22357;SDS011;11346;50.150;8.150;2023-05-13T02:43:36;5.13;;;4.20;;
22357;SDS011;11346;50.150;8.150;2023-05-13T02:46:03;5.67;;;4.17;;
22357;SDS011;11346;50.150;8.150;2023-05-13T02:48:31;5.37;;;4.77;;
22357;SDS011;11346;50.150;8.150;2023-05-13T02:50:58;7.60;;;4.30;;
22357;SDS011;11346;50.150;8.150;2023-05-13T02:53:25;8.83;;;4.30;;
22357;SDS011;11346;50.150;8.150;2023-05-13T02:55:52;8.00;;;4.50;;
22357;SDS011;11346;50.150;8.150;2023-05-13T02:58:19;7.47;;;4.13;;
22357;SDS011;11346;50.150;8.150;2023-05-13T03:00:46;7.10;;;4.43;;
22357;SDS011;11346;50.150;8.150;2023-05-13T03:03:13;8.57;;;4.60;;
22357;SDS011;11346;50.150;8.150;2023-05-13T03:05:41;7.40;;;4.47;;
22357;SDS011;11346;50.150;8.150;2023-05-13T03:08:08;7.33;;;4.67;;
22357;SDS011;11346;50.150;8.150;2023-05-13T03:10:35;9.60;;;4.40;;
22357;SDS011;11346;50.150;8.150;2023-05-13T03:13:02;5.27;;;4.33;;
22357;SDS011;11346;50.150;8.150;2023-05-13T03:15:29;5.17;;;4.20;;
22357;SDS011;11346;50.150;8.150;2023-05-13T03:17:56;4.90;;;4.40;;
22357;SDS011;11346;50.150;8.150;2023-05-13T03:20:23;5.20;;;4.40;;
22357;SDS011;11346;50.150;8.150;2023-05-13T03:22:52;10.50;;;4.30;;
22357;SDS011;11346;50.150;8.150;2023-05-13T03:25:19;7.33;;;4.50;;
22357;SDS011;11346;50.150;8.150;2023-05-13T03:27:46;7.47;;;4.30;;
22357;SDS011;11346;50.150;8.150;2023-05-13T03:30:13;5.03;;;4.20;;
22357;SDS011;11346;50.150;8.150;2023-05-13T03:32:40;8.43;;;4.60;;
22357;SDS011;11346;50.150;8.150;2023-05-13T03:35:07;6.10;;;4.07;;
22357;SDS011;11346;50.150;8.150;2023-05-13T03:37:34;6.27;;;3.90;;
22357;SDS011;11346;50.150;8.150;2023-05-13T03:40:02;5.67;;;4.37;;
22357;SDS011;11346;50.150;8.150;2023-05-13T03:42:30;4.57;;;4.00;;
22357;SDS011;11346;50.150;8.150;2023-05-13T03:44:57;5.77;;;4.50;;
22357;SDS011;11346;50.150;8.150;2023-05-13T03:47:24;6.03;;;4.27;;
22357;SDS011;11346;50.150;8.150;2023-05-13T03:49:51;6.27;;;4.43;;
22357;SDS011;11346;50.150;8.150;2023-05-13T03:52:18;6.57;;;4.23;;
22357;SDS011;11346;50.150;8.150;2023-05-13T03:54:45;5.03;;;4.40;;
22357;SDS011;11346;50.150;8.150;2023-05-13T03:57:13;5.63;;;4.30;;
22357;SDS011;11346;50.150;8.150;2023-05-13T03:59:40;5.73;;;4.10;;
22357;SDS011;11346;50.150;8.150;2023-05-13T04:02:07;8.40;;;4.27;;
22357;SDS011;11346;50.150;8.150;2023-05-13T04:04:34;7.47;;;4.60;;
22357;SDS011;11346;50.150;8.150;2023-05-13T04:07:01;6.97;;;4.20;;
22357;SDS011;11346;50.150;8.150;2023-05-13T04:09:29;12.23;;;4.43;;
22357;SDS011;11346;50.150;8.150;2023-05-13T04:11:56;7.20;;;4.50;;
22357;SDS011;11346;50.150;8.150;2023-05-13T04:14:24;7.67;;;4.53;;
22357;SDS011;11346;50.150;8.150;2023-05-13T04:16:51;4.73;;;4.27;;
22357;SDS011;11346;50.150;8.150;2023-05-13T04:19:18;5.23;;;4.73;;
22357;SDS011;11346;50.150;8.150;2023-05-13T04:21:45;5.27;;;4.77;;
22357;SDS011;11346;50.150;8.150;2023-05-13T04:24:12;8.20;;;4.67;;
22357;SDS011;11346;50.150;8.150;2023-05-13T04:26:39;6.00;;;4.73;;
22357;SDS011;11346;50.150;8.150;2023-05-13T04:29:06;5.03;;;4.53;;
22357;SDS011;11346;50.150;8.150;2023-05-13T04:31:34;11.97;;;4.70;;
22357;SDS011;11346;50.150;8.150;2023-05-13T04:34:01;5.10;;;4.60;;
22357;SDS011;11346;50.150;8.150;2023-05-13T04:36:28;6.20;;;4.13;;
22357;SDS011;11346;50.150;8.150;2023-05-13T04:38:55;6.13;;;4.60;;
22357;SDS011;11346;50.150;8.150;2023-05-13T04:41:22;11.33;;;5.07;;
22357;SDS011;11346;50.150;8.150;2023-05-13T04:43:49;6.70;;;4.17;;
22357;SDS011;11346;50.150;8.150;2023-05-13T04:46:16;9.03;;;4.60;;
22357;SDS011;11346;50.150;8.150;2023-05-13T04:48:45;6.50;;;4.87;;
22357;SDS011;11346;50.150;8.150;2023-05-13T04:51:12;5.90;;;4.33;;
22357;SDS011;11346;50.150;8.150;2023-05-13T04:53:40;8.77;;;4.40;;
22357;SDS011;11346;50.150;8.150;2023-05-13T04:56:07;6.90;;;4.83;;
22357;SDS011;11346;50.150;8.150;2023-05-13T04:58:34;5.60;;;4.33;;
22357;SDS011;11346;50.150;8.150;2023-05-13T05:01:01;6.33;;;4.60;;
22357;SDS011;11346;50.150;8.150;2023-05-13T05:03:28;14.17;;;4.60;;
22357;SDS011;11346;50.150;8.150;2023-05-13T05:05:57;7.47;;;4.90;;
22357;SDS011;11346;50.150;8.150;2023-05-13T05:08:24;6.97;;;4.60;;
22357;SDS011;11346;50.150;8.150;2023-05-13T05:10:52;6.03;;;4.60;;
22357;SDS011;11346;50.150;8.150;2023-05-13T05:13:20;5.73;;;5.03;;
22357;SDS011;11346;50.150;8.150;2023-05-13T05:15:47;6.00;;;4.37;;
22357;SDS011;11346;50.150;8.150;2023-05-13T05:18:13;5.80;;;4.70;;
22357;SDS011;11346;50.150;8.150;2023-05-13T05:20:40;5.43;;;4.87;;
22357;SDS011;11346;50.150;8.150;2023-05-13T05:23:09;6.40;;;4.70;;
22357;SDS011;11346;50.150;8.150;2023-05-13T05:25:36;5.83;;;4.57;;
22357;SDS011;11346;50.150;8.150;2023-05-13T05:28:03;7.37;;;4.60;;
22357;SDS011;11346;50.150;8.150;2023-05-13T05:30:30;5.47;;;4.60;;
22357;SDS011;11346;50.150;8.150;2023-05-13T05:33:03;7.33;;;4.50;;
22357;SDS011;11346;50.150;8.150;2023-05-13T05:35:30;6.93;;;5.23;;
22357;SDS011;11346;50.150;8.150;2023-05-13T05:38:01;6.20;;;4.63;;
22357;SDS011;11346;50.150;8.150;2023-05-13T05:40:29;8.60;;;4.57;;
22357;SDS011;11346;50.150;8.150;2023-05-13T05:42:56;8.93;;;5.50;;
22357;SDS011;11346;50.150;8.150;2023-05-13T05:45:23;7.23;;;4.60;;
22357;SDS011;11346;50.150;8.150;2023-05-13T05:47:50;10.20;;;4.60;;
22357;SDS011;11346;50.150;8.150;2023-05-13T05:50:18;11.60;;;5.17;;
22357;SDS011;11346;50.150;8.150;2023-05-13T05:52:45;6.43;;;4.83;;
22357;SDS011;11346;50.150;8.150;2023-05-13T05:55:12;8.00;;;5.20;;
22357;SDS011;11346;50.150;8.150;2023-05-13T05:57:40;7.20;;;5.17;;
22357;SDS011;11346;50.150;8.150;2023-05-13T06:00:07;7.20;;;5.33;;
22357;SDS011;11346;50.150;8.150;2023-05-13T06:02:35;6.40;;;5.50;;
22357;SDS011;11346;50.150;8.150;2023-05-13T06:05:02;6.27;;;5.07;;
22357;SDS011;11346;50.150;8.150;2023-05-13T06:07:29;12.17;;;6.00;;
22357;SDS011;11346;50.150;8.150;2023-05-13T06:09:56;8.53;;;5.73;;
22357;SDS011;11346;50.150;8.150;2023-05-13T06:12:23;10.77;;;5.30;;
22357;SDS011;11346;50.150;8.150;2023-05-13T06:14:51;16.03;;;5.63;;
22357;SDS011;11346;50.150;8.150;2023-05-13T06:17:18;20.77;;;6.00;;
22357;SDS011;11346;50.150;8.150;2023-05-13T06:19:45;19.63;;;5.83;;
22357;SDS011;11346;50.150;8.150;2023-05-13T06:22:13;27.10;;;6.03;;
22357;SDS011;11346;50.150;8.150;2023-05-13T06:24:40;22.63;;;5.80;;
22357;SDS011;11346;50.150;8.150;2023-05-13T06:27:08;13.47;;;5.90;;
22357;SDS011;11346;50.150;8.150;2023-05-13T06:29:36;12.00;;;5.47;;
22357;SDS011;11346;50.150;8.150;2023-05-13T06:32:04;10.63;;;5.20;;
22357;SDS011;11346;50.150;8.150;2023-05-13T06:34:31;12.37;;;5.67;;
22357;SDS011;11346;50.150;8.150;2023-05-13T06:36:58;7.60;;;4.87;;
22357;SDS011;11346;50.150;8.150;2023-05-13T06:39:25;15.83;;;5.70;;
22357;SDS011;11346;50.150;8.150;2023-05-13T06:41:53;7.97;;;5.93;;
22357;SDS011;11346;50.150;8.150;2023-05-13T06:44:20;9.53;;;5.83;;
22357;SDS011;11346;50.150;8.150;2023-05-13T06:46:47;6.60;;;5.13;;
22357;SDS011;11346;50.150;8.150;2023-05-13T06:49:15;15.30;;;5.70;;
22357;SDS011;11346;50.150;8.150;2023-05-13T06:51:42;8.53;;;5.20;;
22357;SDS011;11346;50.150;8.150;2023-05-13T06:54:09;6.97;;;4.70;;
22357;SDS011;11346;50.150;8.150;2023-05-13T06:56:36;14.67;;;6.03;;
22357;SDS011;11346;50.150;8.150;2023-05-13T06:59:03;11.00;;;5.33;;
22357;SDS011;11346;50.150;8.150;2023-05-13T07:01:30;16.10;;;6.23;;
22357;SDS011;11346;50.150;8.150;2023-05-13T07:03:57;6.20;;;4.93;;
22357;SDS011;11346;50.150;8.150;2023-05-13T07:06:25;12.40;;;5.23;;
22357;SDS011;11346;50.150;8.150;2023-05-13T07:08:52;8.07;;;4.50;;
22357;SDS011;11346;50.150;8.150;2023-05-13T07:11:19;6.63;;;4.97;;
22357;SDS011;11346;50.150;8.150;2023-05-13T07:13:46;8.37;;;4.67;;
22357;SDS011;11346;50.150;8.150;2023-05-13T07:16:13;9.80;;;5.10;;
22357;SDS011;11346;50.150;8.150;2023-05-13T07:18:40;6.27;;;5.00;;
22357;SDS011;11346;50.150;8.150;2023-05-13T07:21:07;6.47;;;4.90;;
22357;SDS011;11346;50.150;8.150;2023-05-13T07:23:36;7.30;;;5.00;;
22357;SDS011;11346;50.150;8.150;2023-05-13T07:26:03;4.90;;;4.40;;
22357;SDS011;11346;50.150;8.150;2023-05-13T07:28:30;8.53;;;4.73;;
22357;SDS011;11346;50.150;8.150;2023-05-13T07:30:57;5.47;;;4.30;;
22357;SDS011;11346;50.150;8.150;2023-05-13T07:33:24;5.60;;;3.63;;
22357;SDS011;11346;50.150;8.150;2023-05-13T07:35:51;3.50;;;3.20;;
22357;SDS011;11346;50.150;8.150;2023-05-13T07:38:18;5.50;;;3.60;;
22357;SDS011;11346;50.150;8.150;2023-05-13T07:40:48;3.50;;;3.20;;
22357;SDS011;11346;50.150;8.150;2023-05-13T07:43:15;3.13;;;2.93;;
22357;SDS011;11346;50.150;8.150;2023-05-13T07:45:47;5.60;;;3.13;;
22357;SDS011;11346;50.150;8.150;2023-05-13T07:48:15;3.50;;;3.20;;
22357;SDS011;11346;50.150;8.150;2023-05-13T07:50:42;3.90;;;2.87;;
22357;SDS011;11346;50.150;8.150;2023-05-13T07:53:09;8.27;;;2.90;;
22357;SDS011;11346;50.150;8.150;2023-05-13T07:55:36;2.70;;;2.50;;
22357;SDS011;11346;50.150;8.150;2023-05-13T07:58:04;3.93;;;3.07;;
22357;SDS011;11346;50.150;8.150;2023-05-13T08:00:31;5.07;;;2.57;;
22357;SDS011;11346;50.150;8.150;2023-05-13T08:02:58;4.10;;;2.90;;
22357;SDS011;11346;50.150;8.150;2023-05-13T08:05:25;5.07;;;2.83;;
22357;SDS011;11346;50.150;8.150;2023-05-13T08:07:52;2.97;;;2.67;;
22357;SDS011;11346;50.150;8.150;2023-05-13T08:10:19;3.23;;;2.50;;
22357;SDS011;11346;50.150;8.150;2023-05-13T08:12:46;5.03;;;2.40;;
22357;SDS011;11346;50.150;8.150;2023-05-13T08:15:19;4.23;;;2.63;;
22357;SDS011;11346;50.150;8.150;2023-05-13T08:17:45;3.47;;;2.50;;
22357;SDS011;11346;50.150;8.150;2023-05-13T08:20:13;2.57;;;2.33;;
22357;SDS011;11346;50.150;8.150;2023-05-13T08:22:40;3.57;;;2.60;;
22357;SDS011;11346;50.150;8.150;2023-05-13T08:25:08;2.70;;;2.50;;
22357;SDS011;11346;50.150;8.150;2023-05-13T08:27:36;3.97;;;2.90;;
22357;SDS011;11346;50.150;8.150;2023-05-13T08:30:03;2.60;;;2.40;;
22357;SDS011;11346;50.150;8.150;2023-05-13T08:32:31;5.77;;;2.83;;
22357;SDS011;11346;50.150;8.150;2023-05-13T08:34:58;5.50;;;2.50;;
22357;SDS011;11346;50.150;8.150;2023-05-13T08:37:26;4.13;;;2.67;;
22357;SDS011;11346;50.150;8.150;2023-05-13T08:39:53;5.50;;;2.60;;
22357;SDS011;11346;50.150;8.150;2023-05-13T08:42:20;3.07;;;2.77;;
22357;SDS011;11346;50.150;8.150;2023-05-13T08:44:48;3.70;;;2.70;;
22357;SDS011;11346;50.150;8.150;2023-05-13T08:47:21;3.07;;;2.43;;
22357;SDS011;11346;50.150;8.150;2023-05-13T08:49:52;3.43;;;2.50;;
22357;SDS011;11346;50.150;8.150;2023-05-13T08:52:19;5.70;;;2.60;;
22357;SDS011;11346;50.150;8.150;2023-05-13T08:54:46;4.63;;;2.53;;
22357;SDS011;11346;50.150;8.150;2023-05-13T08:57:13;7.33;;;2.50;;
22357;SDS011;11346;50.150;8.150;2023-05-13T08:59:40;3.07;;;2.70;;
22357;SDS011;11346;50.150;8.150;2023-05-13T09:02:07;5.53;;;3.23;;
22357;SDS011;11346;50.150;8.150;2023-05-13T09:04:35;5.47;;;2.57;;
22357;SDS011;11346;50.150;8.150;2023-05-13T09:07:04;2.87;;;2.60;;
22357;SDS011;11346;50.150;8.150;2023-05-13T09:09:31;7.57;;;2.90;;
22357;SDS011;11346;50.150;8.150;2023-05-13T09:11:58;3.07;;;2.77;;
22357;SDS011;11346;50.150;8.150;2023-05-13T09:14:26;3.57;;;2.83;;
22357;SDS011;11346;50.150;8.150;2023-05-13T09:16:54;6.47;;;3.30;;
22357;SDS011;11346;50.150;8.150;2023-05-13T09:19:22;2.80;;;2.60;;
22357;SDS011;11346;50.150;8.150;2023-05-13T09:21:49;2.80;;;2.60;;
22357;SDS011;11346;50.150;8.150;2023-05-13T09:24:19;4.07;;;2.50;;
22357;SDS011;11346;50.150;8.150;2023-05-13T09:26:46;2.40;;;2.30;;
22357;SDS011;11346;50.150;8.150;2023-05-13T09:29:15;8.17;;;3.10;;
22357;SDS011;11346;50.150;8.150;2023-05-13T09:31:42;3.13;;;2.77;;
22357;SDS011;11346;50.150;8.150;2023-05-13T09:34:10;2.87;;;2.67;;
22357;SDS011;11346;50.150;8.150;2023-05-13T09:36:37;4.87;;;2.57;;
22357;SDS011;11346;50.150;8.150;2023-05-13T09:39:04;4.73;;;2.60;;
22357;SDS011;11346;50.150;8.150;2023-05-13T09:41:33;4.50;;;2.83;;
22357;SDS011;11346;50.150;8.150;2023-05-13T09:44:01;3.03;;;2.83;;
22357;SDS011;11346;50.150;8.150;2023-05-13T09:46:29;3.97;;;2.80;;
22357;SDS011;11346;50.150;8.150;2023-05-13T09:48:56;3.80;;;2.60;;
22357;SDS011;11346;50.150;8.150;2023-05-13T09:51:26;6.60;;;3.07;;
22357;SDS011;11346;50.150;8.150;2023-05-13T09:54:01;5.37;;;2.83;;
22357;SDS011;11346;50.150;8.150;2023-05-13T09:56:28;3.70;;;2.63;;
22357;SDS011;11346;50.150;8.150;2023-05-13T09:58:57;5.47;;;2.60;;
22357;SDS011;11346;50.150;8.150;2023-05-13T10:01:25;5.20;;;2.80;;
22357;SDS011;11346;50.150;8.150;2023-05-13T10:03:53;4.50;;;2.70;;
22357;SDS011;11346;50.150;8.150;2023-05-13T10:06:20;2.60;;;2.40;;
22357;SDS011;11346;50.150;8.150;2023-05-13T10:08:49;7.47;;;2.60;;
22357;SDS011;11346;50.150;8.150;2023-05-13T10:11:16;4.23;;;2.70;;
22357;SDS011;11346;50.150;8.150;2023-05-13T10:13:44;2.97;;;2.70;;
22357;SDS011;11346;50.150;8.150;2023-05-13T10:16:16;3.30;;;2.50;;
22357;SDS011;11346;50.150;8.150;2023-05-13T10:18:44;3.93;;;2.30;;
22357;SDS011;11346;50.150;8.150;2023-05-13T10:21:11;2.77;;;2.57;;
22357;SDS011;11346;50.150;8.150;2023-05-13T10:23:38;3.40;;;2.73;;
22357;SDS011;11346;50.150;8.150;2023-05-13T10:26:05;2.93;;;2.60;;
22357;SDS011;11346;50.150;8.150;2023-05-13T10:28:32;3.23;;;2.70;;
22357;SDS011;11346;50.150;8.150;2023-05-13T10:30:59;2.80;;;2.60;;
22357;SDS011;11346;50.150;8.150;2023-05-13T10:33:28;3.70;;;2.63;;
22357;SDS011;11346;50.150;8.150;2023-05-13T10:35:59;3.60;;;2.77;;
22357;SDS011;11346;50.150;8.150;2023-05-13T10:38:32;3.13;;;2.83;;
22357;SDS011;11346;50.150;8.150;2023-05-13T10:41:09;2.40;;;2.20;;
22357;SDS011;11346;50.150;8.150;2023-05-13T10:43:37;3.27;;;2.97;;
22357;SDS011;11346;50.150;8.150;2023-05-13T10:46:06;3.40;;;3.10;;
22357;SDS011;11346;50.150;8.150;2023-05-13T10:48:38;3.30;;;2.53;;
22357;SDS011;11346;50.150;8.150;2023-05-13T10:51:06;5.87;;;2.70;;
22357;SDS011;11346;50.150;8.150;2023-05-13T10:53:35;5.57;;;2.73;;
22357;SDS011;11346;50.150;8.150;2023-05-13T10:56:03;2.97;;;2.70;;
22357;SDS011;11346;50.150;8.150;2023-05-13T10:58:33;3.17;;;2.87;;
22357;SDS011;11346;50.150;8.150;2023-05-13T11:01:13;4.40;;;2.63;;
22357;SDS011;11346;50.150;8.150;2023-05-13T11:03:44;3.00;;;2.80;;
22357;SDS011;11346;50.150;8.150;2023-05-13T11:06:16;3.10;;;2.77;;
22357;SDS011;11346;50.150;8.150;2023-05-13T11:08:44;4.00;;;2.23;;
22357;SDS011;11346;50.150;8.150;2023-05-13T11:11:19;3.37;;;2.90;;
22357;SDS011;11346;50.150;8.150;2023-05-13T11:13:48;3.47;;;2.60;;
22357;SDS011;11346;50.150;8.150;2023-05-13T11:16:15;6.17;;;2.60;;
22357;SDS011;11346;50.150;8.150;2023-05-13T11:18:43;3.07;;;2.43;;
22357;SDS011;11346;50.150;8.150;2023-05-13T11:21:11;3.10;;;2.80;;
22357;SDS011;11346;50.150;8.150;2023-05-13T11:23:55;5.10;;;3.10;;
22357;SDS011;11346;50.150;8.150;2023-05-13T11:26:22;5.13;;;3.07;;
22357;SDS011;11346;50.150;8.150;2023-05-13T11:28:56;5.33;;;3.03;;
22357;SDS011;11346;50.150;8.150;2023-05-13T11:31:25;4.80;;;3.20;;
22357;SDS011;11346;50.150;8.150;2023-05-13T11:34:06;5.47;;;2.97;;
22357;SDS011;11346;50.150;8.150;2023-05-13T11:36:34;3.80;;;2.80;;
22357;SDS011;11346;50.150;8.150;2023-05-13T11:39:05;3.23;;;2.93;;
22357;SDS011;11346;50.150;8.150;2023-05-13T11:41:32;4.67;;;3.20;;
22357;SDS011;11346;50.150;8.150;2023-05-13T11:44:00;3.40;;;3.10;;
22357;SDS011;11346;50.150;8.150;2023-05-13T11:46:28;7.10;;;2.70;;
22357;SDS011;11346;50.150;8.150;2023-05-13T11:48:55;5.10;;;2.60;;
22357;SDS011;11346;50.150;8.150;2023-05-13T11:51:23;4.60;;;2.50;;
22357;SDS011;11346;50.150;8.150;2023-05-13T11:53:50;4.00;;;2.83;;
22357;SDS011;11346;50.150;8.150;2023-05-13T11:56:18;8.03;;;3.10;;
22357;SDS011;11346;50.150;8.150;2023-05-13T11:58:45;6.73;;;2.80;;
22357;SDS011;11346;50.150;8.150;2023-05-13T12:01:13;2.90;;;2.67;;
22357;SDS011;11346;50.150;8.150;2023-05-13T12:03:40;4.57;;;2.53;;
22357;SDS011;11346;50.150;8.150;2023-05-13T12:06:07;5.30;;;2.60;;
22357;SDS011;11346;50.150;8.150;2023-05-13T12:08:42;2.90;;;2.70;;
22357;SDS011;11346;50.150;8.150;2023-05-13T12:11:10;6.30;;;2.77;;
22357;SDS011;11346;50.150;8.150;2023-05-13T12:13:37;3.00;;;2.53;;
22357;SDS011;11346;50.150;8.150;2023-05-13T12:16:05;2.90;;;2.70;;
22357;SDS011;11346;50.150;8.150;2023-05-13T12:18:32;5.50;;;3.13;;
22357;SDS011;11346;50.150;8.150;2023-05-13T12:20:59;3.63;;;2.60;;
22357;SDS011;11346;50.150;8.150;2023-05-13T12:23:36;3.40;;;2.53;;
22357;SDS011;11346;50.150;8.150;2023-05-13T12:26:07;4.33;;;3.00;;
22357;SDS011;11346;50.150;8.150;2023-05-13T12:28:34;2.93;;;2.70;;
22357;SDS011;11346;50.150;8.150;2023-05-13T12:31:01;5.20;;;3.03;;
22357;SDS011;11346;50.150;8.150;2023-05-13T12:33:30;4.13;;;2.73;;
22357;SDS011;11346;50.150;8.150;2023-05-13T12:38:39;3.50;;;3.20;;
22357;SDS011;11346;50.150;8.150;2023-05-13T12:41:11;6.23;;;3.10;;
22357;SDS011;11346;50.150;8.150;2023-05-13T12:43:39;4.37;;;3.00;;
22357;SDS011;11346;50.150;8.150;2023-05-13T12:46:06;4.43;;;2.70;;
22357;SDS011;11346;50.150;8.150;2023-05-13T12:48:33;3.00;;;2.80;;
22357;SDS011;11346;50.150;8.150;2023-05-13T12:51:00;3.67;;;2.77;;
22357;SDS011;11346;50.150;8.150;2023-05-13T12:53:27;6.93;;;3.20;;
22357;SDS011;11346;50.150;8.150;2023-05-13T12:55:55;3.93;;;2.77;;
22357;SDS011;11346;50.150;8.150;2023-05-13T12:58:23;4.87;;;3.10;;
22357;SDS011;11346;50.150;8.150;2023-05-13T13:00:50;3.37;;;3.07;;
22357;SDS011;11346;50.150;8.150;2023-05-13T13:03:17;3.00;;;2.80;;
22357;SDS011;11346;50.150;8.150;2023-05-13T13:05:44;3.57;;;3.00;;
22357;SDS011;11346;50.150;8.150;2023-05-13T13:08:12;3.20;;;2.90;;
22357;SDS011;11346;50.150;8.150;2023-05-13T13:10:39;3.10;;;2.57;;
22357;SDS011;11346;50.150;8.150;2023-05-13T13:13:06;3.20;;;2.90;;
22357;SDS011;11346;50.150;8.150;2023-05-13T13:15:34;3.10;;;2.90;;
22357;SDS011;11346;50.150;8.150;2023-05-13T13:18:01;4.37;;;3.13;;
22357;SDS011;11346;50.150;8.150;2023-05-13T13:20:28;4.30;;;3.37;;
22357;SDS011;11346;50.150;8.150;2023-05-13T13:22:55;3.30;;;3.00;;
22357;SDS011;11346;50.150;8.150;2023-05-13T13:25:23;5.33;;;3.03;;
22357;SDS011;11346;50.150;8.150;2023-05-13T13:27:50;7.23;;;3.33;;
22357;SDS011;11346;50.150;8.150;2023-05-13T13:30:17;9.87;;;3.40;;
22357;SDS011;11346;50.150;8.150;2023-05-13T13:32:46;4.00;;;2.47;;
22357;SDS011;11346;50.150;8.150;2023-05-13T13:35:13;3.53;;;2.70;;
22357;SDS011;11346;50.150;8.150;2023-05-13T13:37:40;3.10;;;2.47;;
22357;SDS011;11346;50.150;8.150;2023-05-13T13:40:07;2.30;;;2.10;;
22357;SDS011;11346;50.150;8.150;2023-05-13T13:42:34;1.97;;;1.87;;
22357;SDS011;11346;50.150;8.150;2023-05-13T13:45:01;4.27;;;2.03;;
22357;SDS011;11346;50.150;8.150;2023-05-13T13:47:28;3.50;;;2.20;;
22357;SDS011;11346;50.150;8.150;2023-05-13T13:49:56;1.87;;;1.77;;
22357;SDS011;11346;50.150;8.150;2023-05-13T13:52:23;2.43;;;1.87;;
22357;SDS011;11346;50.150;8.150;2023-05-13T13:54:52;2.27;;;1.90;;
22357;SDS011;11346;50.150;8.150;2023-05-13T13:57:19;3.63;;;2.07;;
22357;SDS011;11346;50.150;8.150;2023-05-13T13:59:46;2.30;;;2.10;;
22357;SDS011;11346;50.150;8.150;2023-05-13T14:02:13;2.30;;;2.20;;
22357;SDS011;11346;50.150;8.150;2023-05-13T14:04:41;2.97;;;1.80;;
22357;SDS011;11346;50.150;8.150;2023-05-13T14:07:09;2.73;;;2.03;;
22357;SDS011;11346;50.150;8.150;2023-05-13T14:09:36;4.07;;;1.80;;
22357;SDS011;11346;50.150;8.150;2023-05-13T14:12:03;1.93;;;1.83;;
22357;SDS011;11346;50.150;8.150;2023-05-13T14:14:31;2.20;;;2.10;;
22357;SDS011;11346;50.150;8.150;2023-05-13T14:16:58;2.23;;;2.03;;
22357;SDS011;11346;50.150;8.150;2023-05-13T14:19:25;2.13;;;2.03;;
22357;SDS011;11346;50.150;8.150;2023-05-13T14:21:51;2.80;;;1.87;;
22357;SDS011;11346;50.150;8.150;2023-05-13T14:24:21;2.30;;;2.10;;
22357;SDS011;11346;50.150;8.150;2023-05-13T14:26:48;3.87;;;2.00;;
22357;SDS011;11346;50.150;8.150;2023-05-13T14:29:15;4.10;;;2.20;;
22357;SDS011;11346;50.150;8.150;2023-05-13T14:31:42;4.67;;;2.10;;
22357;SDS011;11346;50.150;8.150;2023-05-13T14:34:09;2.60;;;2.13;;
22357;SDS011;11346;50.150;8.150;2023-05-13T14:36:36;3.40;;;2.30;;
22357;SDS011;11346;50.150;8.150;2023-05-13T14:39:03;4.23;;;2.53;;
22357;SDS011;11346;50.150;8.150;2023-05-13T14:41:34;3.80;;;2.20;;
22357;SDS011;11346;50.150;8.150;2023-05-13T14:44:01;2.20;;;2.00;;
22357;SDS011;11346;50.150;8.150;2023-05-13T14:46:28;3.70;;;2.30;;
22357;SDS011;11346;50.150;8.150;2023-05-13T14:48:57;4.37;;;2.00;;
22357;SDS011;11346;50.150;8.150;2023-05-13T14:51:24;2.80;;;2.30;;